Addison, Texas
Current Conditions -  °F | °C
As of 2:35 AM on Saturday 20 Dec 2014 (Local Time) from KADS Reporting Station
Haze Haze  
Wind Chill: 42°   Ceiling: 600
Heat Index: 46°   Visibility: 5mi
Dew Point: 46°   Wind: 6mph
Humidity: 100%   Direction: 350°N
Pressure: 30.23"   Gusts: NA
Location:  32.95°N, 96.82°W
Report Text: KADS 200835Z AUTO 35005KT 5SM BR OVC006 08/08 A3023 RMK AO2 T00750075
Loading
Personal Weather Stations






























Interactive Weather Map New forecast layout! Learn more

10-Day Weather Forecast

Advertisements
Track Severe Weather on mobile